createdAt,value
2023-04-10T00:00:33.615Z,9.60
2023-04-10T00:03:01.692Z,9.60
2023-04-10T00:05:29.295Z,9.60
2023-04-10T00:07:57.140Z,9.50
2023-04-10T00:18:41.550Z,9.60
2023-04-10T00:21:08.875Z,9.40
2023-04-10T00:23:37.011Z,9.40
2023-04-10T00:26:04.695Z,9.50
2023-04-10T00:28:32.461Z,9.60
2023-04-10T00:30:59.390Z,9.50
2023-04-10T00:33:26.682Z,9.40
2023-04-10T00:35:56.268Z,9.40
2023-04-10T00:43:28.570Z,9.60
2023-04-10T00:45:56.198Z,9.40
2023-04-10T00:48:23.544Z,9.40
2023-04-10T00:50:50.900Z,9.60
2023-04-10T00:53:18.299Z,9.60
2023-04-10T00:55:48.449Z,9.60
2023-04-10T00:58:16.069Z,9.60
2023-04-10T01:08:35.690Z,9.40
2023-04-10T01:11:10.187Z,9.50
2023-04-10T01:13:45.797Z,9.40
2023-04-10T01:16:19.536Z,9.40
2023-04-10T01:18:53.645Z,9.50
2023-04-10T01:21:22.685Z,9.40
2023-04-10T01:24:08.252Z,9.40
2023-04-10T01:31:49.936Z,9.30
2023-04-10T01:34:21.797Z,9.40
2023-04-10T01:36:51.958Z,9.30
2023-04-10T01:39:20.791Z,9.20
2023-04-10T01:41:51.188Z,8.90
2023-04-10T01:44:21.040Z,9.00
2023-04-10T01:46:50.757Z,9.00
2023-04-10T01:54:24.053Z,8.90
2023-04-10T01:56:51.825Z,8.90
2023-04-10T01:59:19.971Z,8.70
2023-04-10T02:01:47.882Z,8.80
2023-04-10T02:04:15.291Z,8.80
2023-04-10T02:06:50.785Z,8.90
2023-04-10T02:09:26.090Z,8.90
2023-04-10T02:15:10.255Z,8.80
2023-04-10T02:17:39.261Z,8.70
2023-04-10T02:20:08.826Z,8.70
2023-04-10T02:22:36.726Z,8.70
2023-04-10T02:25:06.157Z,8.60
2023-04-10T02:27:36.329Z,8.50
2023-04-10T02:30:09.239Z,8.60
2023-04-10T02:37:42.858Z,8.50
2023-04-10T02:40:11.572Z,8.70
2023-04-10T02:42:38.811Z,8.60
2023-04-10T02:45:07.834Z,8.50
2023-04-10T02:47:36.186Z,8.50
2023-04-10T02:50:03.670Z,8.60
2023-04-10T02:52:31.066Z,8.60
2023-04-10T02:55:00.126Z,8.50
2023-04-10T03:02:33.014Z,8.50
2023-04-10T03:05:02.957Z,8.60
2023-04-10T03:07:31.658Z,8.60
2023-04-10T03:09:58.772Z,8.60
2023-04-10T03:12:26.129Z,8.60
2023-04-10T03:14:53.057Z,8.60
2023-04-10T03:17:20.507Z,8.50
2023-04-10T03:23:17.738Z,8.30
2023-04-10T03:25:44.994Z,8.40
2023-04-10T03:28:12.303Z,8.40
2023-04-10T03:30:39.811Z,8.30
2023-04-10T03:33:07.514Z,8.30
2023-04-10T03:35:34.779Z,8.20
2023-04-10T03:38:02.012Z,8.20
2023-04-10T03:46:22.762Z,8.30
2023-04-10T03:48:52.280Z,8.20
2023-04-10T03:51:20.640Z,8.20
2023-04-10T03:53:48.852Z,8.20
2023-04-10T03:56:17.312Z,8.10
2023-04-10T03:58:44.562Z,8.10
2023-04-10T04:01:12.114Z,7.90
2023-04-10T04:11:48.021Z,7.90
2023-04-10T04:14:15.524Z,8.00
2023-04-10T04:16:43.054Z,7.90
2023-04-10T04:19:11.146Z,7.90
2023-04-10T04:21:38.293Z,7.80
2023-04-10T04:24:06.083Z,7.80
2023-04-10T04:26:33.697Z,7.90
2023-04-10T04:34:37.844Z,7.90
2023-04-10T04:37:04.950Z,7.70
2023-04-10T04:39:31.973Z,7.70
2023-04-10T04:41:59.182Z,7.80
2023-04-10T04:44:26.493Z,7.70
2023-04-10T04:46:53.785Z,7.90
2023-04-10T04:49:22.068Z,7.90
2023-04-10T04:54:44.792Z,7.90
2023-04-10T04:57:12.044Z,7.80
2023-04-10T04:59:39.586Z,7.80
2023-04-10T05:02:07.686Z,7.80
2023-04-10T05:04:35.030Z,7.80
2023-04-10T05:07:02.745Z,7.80
2023-04-10T05:09:30.272Z,7.80
2023-04-10T05:19:47.189Z,7.80
2023-04-10T05:22:14.873Z,7.70
2023-04-10T05:24:43.078Z,7.70
2023-04-10T05:27:10.603Z,7.80
2023-04-10T05:29:37.800Z,7.70
2023-04-10T05:32:05.820Z,7.60
2023-04-10T05:34:32.977Z,7.70
2023-04-10T05:44:47.983Z,7.80
2023-04-10T05:47:15.171Z,7.80
2023-04-10T05:49:42.490Z,8.00
2023-04-10T05:52:09.914Z,7.90
2023-04-10T05:54:37.146Z,7.90
2023-04-10T05:57:04.470Z,7.90
2023-04-10T05:59:31.845Z,8.00
2023-04-10T06:04:39.814Z,8.00
2023-04-10T06:07:07.225Z,8.10
2023-04-10T06:09:34.573Z,8.20
2023-04-10T06:12:02.205Z,8.30
2023-04-10T06:14:29.696Z,8.40
2023-04-10T06:16:56.808Z,8.40
2023-04-10T06:19:24.752Z,8.30
2023-04-10T06:28:55.116Z,8.50
2023-04-10T06:31:23.804Z,8.60
2023-04-10T06:33:59.731Z,8.60
2023-04-10T06:36:36.637Z,8.50
2023-04-10T06:39:04.219Z,8.60
2023-04-10T06:41:44.730Z,8.70
2023-04-10T06:44:14.069Z,8.70
2023-04-10T06:51:48.151Z,8.80
2023-04-10T06:54:15.352Z,8.90
2023-04-10T06:56:43.084Z,8.90
2023-04-10T06:59:10.350Z,8.90
2023-04-10T07:01:37.832Z,9.10
2023-04-10T07:04:06.265Z,9.20
2023-04-10T07:06:33.682Z,9.20
2023-04-10T07:11:43.727Z,9.30
2023-04-10T07:14:11.465Z,9.30
2023-04-10T07:16:38.512Z,9.50
2023-04-10T07:19:05.939Z,9.50
2023-04-10T07:21:33.220Z,9.60
2023-04-10T07:24:02.850Z,9.60
2023-04-10T07:26:30.130Z,9.60
2023-04-10T07:34:59.072Z,9.70
2023-04-10T07:37:26.430Z,9.70
2023-04-10T07:39:53.952Z,9.80
2023-04-10T07:42:22.514Z,10.20
2023-04-10T07:44:50.323Z,10.00
2023-04-10T07:47:17.440Z,10.00
2023-04-10T07:49:45.142Z,10.10
2023-04-10T07:59:58.848Z,10.50
2023-04-10T08:02:26.462Z,10.40
2023-04-10T08:04:54.026Z,10.50
2023-04-10T08:07:22.535Z,10.60
2023-04-10T08:09:53.653Z,10.70
2023-04-10T08:12:20.770Z,10.80
2023-04-10T08:14:48.975Z,11.20
2023-04-10T08:25:06.556Z,11.80
2023-04-10T08:27:33.749Z,11.90
2023-04-10T08:30:01.187Z,12.10
2023-04-10T08:32:30.098Z,12.20
2023-04-10T08:34:57.676Z,12.00
2023-04-10T08:37:26.472Z,12.00
2023-04-10T08:39:54.047Z,12.20
2023-04-10T08:45:03.979Z,12.00
2023-04-10T08:47:36.783Z,12.00
2023-04-10T08:50:07.945Z,12.20
2023-04-10T08:52:38.591Z,12.30
2023-04-10T08:55:09.384Z,12.40
2023-04-10T08:57:39.019Z,12.60
2023-04-10T09:05:28.474Z,13.30
2023-04-10T09:07:55.790Z,13.40
2023-04-10T09:10:23.309Z,13.50
2023-04-10T09:12:51.044Z,13.40
2023-04-10T09:15:19.082Z,13.40
2023-04-10T09:17:58.234Z,13.40
2023-04-10T09:20:28.786Z,13.50
2023-04-10T09:28:04.874Z,13.70
2023-04-10T09:30:40.741Z,13.90
2023-04-10T09:33:22.885Z,14.10
2023-04-10T09:35:50.849Z,14.00
2023-04-10T09:38:19.425Z,13.80
2023-04-10T09:40:47.806Z,13.70
2023-04-10T09:43:23.491Z,14.00
2023-04-10T09:51:04.239Z,14.70
2023-04-10T09:53:32.109Z,14.80
2023-04-10T09:56:00.933Z,15.20
2023-04-10T09:58:28.962Z,15.40
2023-04-10T10:00:56.592Z,15.70
2023-04-10T10:03:25.026Z,15.50
2023-04-10T10:05:52.631Z,15.40
2023-04-10T10:16:15.770Z,15.50
2023-04-10T10:18:47.638Z,15.90
2023-04-10T10:21:19.001Z,16.00
2023-04-10T10:23:47.772Z,16.20
2023-04-10T10:26:15.463Z,16.00
2023-04-10T10:28:44.397Z,15.90
2023-04-10T10:31:13.844Z,15.70
2023-04-10T10:33:42.841Z,16.10
2023-04-10T10:41:21.633Z,16.30
2023-04-10T10:43:55.750Z,16.70
2023-04-10T10:46:33.150Z,17.00
2023-04-10T10:49:01.577Z,16.80
2023-04-10T10:51:44.407Z,16.90
2023-04-10T10:54:34.849Z,16.80
2023-04-10T11:04:59.049Z,17.10
2023-04-10T11:08:04.737Z,17.20
2023-04-10T11:11:10.567Z,16.90
2023-04-10T11:13:39.780Z,16.80
2023-04-10T11:16:09.895Z,16.50
2023-04-10T11:19:12.890Z,16.40
2023-04-10T11:30:36.378Z,16.40
2023-04-10T11:33:06.078Z,16.80
2023-04-10T11:35:33.895Z,17.00
2023-04-10T11:38:12.771Z,17.20
2023-04-10T11:41:01.020Z,17.20
2023-04-10T11:43:28.642Z,17.20
2023-04-10T11:46:08.102Z,17.10
2023-04-10T11:53:42.548Z,17.00
2023-04-10T11:56:21.336Z,17.10
2023-04-10T11:58:52.426Z,17.20
2023-04-10T12:01:22.186Z,16.90
2023-04-10T12:03:50.220Z,16.70
2023-04-10T12:06:19.013Z,17.00
2023-04-10T12:08:50.480Z,17.20
2023-04-10T12:19:08.433Z,17.40
2023-04-10T12:21:36.960Z,17.30
2023-04-10T12:24:05.476Z,17.40
2023-04-10T12:26:32.760Z,17.60
2023-04-10T12:29:00.231Z,17.70
2023-04-10T12:31:28.729Z,17.90
2023-04-10T12:33:57.332Z,17.90
2023-04-10T12:41:30.861Z,17.60
2023-04-10T12:44:08.578Z,17.50
2023-04-10T12:46:36.328Z,17.40
2023-04-10T12:49:14.729Z,17.30
2023-04-10T12:51:43.375Z,17.20
2023-04-10T12:54:10.225Z,17.40
2023-04-10T12:56:43.202Z,17.40
2023-04-10T13:05:01.669Z,17.70
2023-04-10T13:07:29.542Z,17.50
2023-04-10T13:09:56.985Z,17.60
2023-04-10T13:12:25.663Z,17.50
2023-04-10T13:14:53.687Z,17.40
2023-04-10T13:17:21.248Z,17.60
2023-04-10T13:19:49.000Z,17.80
2023-04-10T13:30:08.158Z,18.40
2023-04-10T13:32:35.800Z,18.00
2023-04-10T13:35:03.083Z,17.90
2023-04-10T13:37:30.568Z,17.80
2023-04-10T13:39:57.864Z,17.60
2023-04-10T13:42:25.150Z,17.30
2023-04-10T13:44:52.938Z,17.40
2023-04-10T13:52:39.805Z,17.50
2023-04-10T13:55:08.284Z,17.40
2023-04-10T13:57:35.525Z,17.50
2023-04-10T14:00:04.185Z,17.50
2023-04-10T14:02:31.781Z,17.70
2023-04-10T14:04:59.294Z,17.90
2023-04-10T14:07:28.821Z,17.70
2023-04-10T14:16:03.576Z,17.60
2023-04-10T14:18:30.853Z,17.80
2023-04-10T14:20:58.218Z,18.00
2023-04-10T14:23:26.150Z,18.00
2023-04-10T14:25:53.928Z,17.90
2023-04-10T14:28:21.268Z,17.90
2023-04-10T14:30:50.486Z,18.20
2023-04-10T14:41:14.141Z,17.50
2023-04-10T14:43:43.540Z,17.20
2023-04-10T14:46:11.848Z,17.30
2023-04-10T14:48:39.754Z,17.40
2023-04-10T14:51:12.112Z,17.50
2023-04-10T14:53:40.122Z,17.70
2023-04-10T14:56:13.269Z,17.90
2023-04-10T15:03:48.265Z,17.50
2023-04-10T15:06:15.781Z,17.30
2023-04-10T15:08:43.242Z,17.50
2023-04-10T15:11:11.236Z,17.60
2023-04-10T15:13:39.104Z,17.60
2023-04-10T15:16:07.794Z,17.80
2023-04-10T15:18:35.610Z,17.90
2023-04-10T15:26:14.404Z,17.40
2023-04-10T15:28:42.486Z,17.20
2023-04-10T15:31:10.317Z,17.00
2023-04-10T15:33:39.400Z,17.20
2023-04-10T15:36:08.673Z,17.20
2023-04-10T15:38:36.540Z,17.20
2023-04-10T15:41:10.101Z,16.90
2023-04-10T15:49:16.355Z,16.90
2023-04-10T15:51:46.733Z,16.80
2023-04-10T15:54:14.118Z,16.70
2023-04-10T15:56:41.398Z,16.80
2023-04-10T15:59:08.609Z,16.90
2023-04-10T16:01:36.073Z,17.00
2023-04-10T16:04:03.803Z,17.00
2023-04-10T16:09:34.755Z,16.80
2023-04-10T16:12:02.693Z,16.90
2023-04-10T16:14:29.860Z,17.10
2023-04-10T16:16:56.857Z,17.00
2023-04-10T16:19:24.309Z,16.80
2023-04-10T16:21:51.720Z,16.60
2023-04-10T16:24:19.447Z,16.60
2023-04-10T16:26:47.762Z,16.50
2023-04-10T16:34:19.418Z,16.50
2023-04-10T16:36:46.922Z,16.20
2023-04-10T16:39:14.169Z,16.40
2023-04-10T16:41:41.772Z,16.40
2023-04-10T16:44:09.227Z,16.30
2023-04-10T16:46:36.905Z,16.30
2023-04-10T16:49:04.390Z,16.30
2023-04-10T16:54:33.427Z,16.30
2023-04-10T16:57:00.959Z,16.50
2023-04-10T16:59:28.273Z,16.50
2023-04-10T17:01:56.177Z,16.40
2023-04-10T17:04:23.561Z,16.60
2023-04-10T17:06:51.355Z,16.70
2023-04-10T17:09:18.700Z,16.80
2023-04-10T17:19:32.220Z,16.50
2023-04-10T17:21:59.614Z,16.50
2023-04-10T17:24:26.882Z,16.70
2023-04-10T17:26:56.524Z,16.60
2023-04-10T17:29:25.155Z,16.50
2023-04-10T17:31:52.813Z,16.50
2023-04-10T17:34:20.882Z,16.40
2023-04-10T17:44:37.491Z,16.30
2023-04-10T17:47:05.549Z,16.10
2023-04-10T17:49:35.974Z,16.00
2023-04-10T17:52:03.308Z,16.20
2023-04-10T17:54:30.987Z,16.20
2023-04-10T17:56:58.464Z,15.90
2023-04-10T17:59:30.832Z,15.70
2023-04-10T18:07:07.290Z,15.90
2023-04-10T18:09:37.002Z,16.20
2023-04-10T18:12:04.507Z,16.00
2023-04-10T18:14:32.105Z,16.00
2023-04-10T18:17:01.738Z,16.10
2023-04-10T18:19:30.432Z,16.00
2023-04-10T18:21:58.364Z,16.10
2023-04-10T18:27:11.401Z,16.00
2023-04-10T18:29:38.794Z,15.90
2023-04-10T18:32:08.032Z,15.90
2023-04-10T18:34:36.709Z,15.90
2023-04-10T18:37:04.122Z,16.00
2023-04-10T18:39:31.323Z,15.70
2023-04-10T18:41:58.626Z,15.70
2023-04-10T18:52:08.736Z,15.70
2023-04-10T18:54:36.447Z,15.80
2023-04-10T18:57:04.054Z,15.60
2023-04-10T18:59:32.095Z,15.40
2023-04-10T19:01:59.817Z,15.60
2023-04-10T19:04:27.284Z,15.60
2023-04-10T19:06:55.381Z,15.50
2023-04-10T19:16:57.976Z,15.40
2023-04-10T19:19:25.282Z,15.50
2023-04-10T19:21:52.478Z,15.60
2023-04-10T19:24:19.840Z,15.70
2023-04-10T19:26:47.740Z,15.60
2023-04-10T19:29:15.749Z,15.60
2023-04-10T19:31:43.209Z,15.50
2023-04-10T19:41:42.727Z,15.40
2023-04-10T19:44:10.216Z,15.40
2023-04-10T19:46:37.940Z,15.30
2023-04-10T19:49:06.092Z,15.20
2023-04-10T19:51:33.401Z,15.30
2023-04-10T19:54:00.977Z,15.10
2023-04-10T19:56:28.910Z,15.10
2023-04-10T20:04:04.859Z,15.10
2023-04-10T20:06:32.283Z,14.80
2023-04-10T20:08:59.566Z,14.70
2023-04-10T20:11:30.033Z,14.60
2023-04-10T20:13:57.917Z,14.60
2023-04-10T20:16:26.762Z,14.30
2023-04-10T20:18:54.997Z,14.40
2023-04-10T20:26:29.664Z,14.60
2023-04-10T20:28:57.761Z,14.40
2023-04-10T20:31:28.619Z,14.60
2023-04-10T20:33:56.337Z,14.60
2023-04-10T20:36:24.308Z,14.30
2023-04-10T20:38:51.702Z,14.60
2023-04-10T20:41:19.053Z,14.50
2023-04-10T20:48:52.068Z,14.30
2023-04-10T20:51:19.543Z,14.10
2023-04-10T20:53:46.856Z,14.10
2023-04-10T20:56:15.192Z,14.00
2023-04-10T20:58:42.618Z,13.90
2023-04-10T21:01:10.058Z,13.90
2023-04-10T21:03:37.712Z,13.90
2023-04-10T21:08:45.588Z,13.80
2023-04-10T21:11:12.788Z,13.80
2023-04-10T21:13:40.113Z,13.60
2023-04-10T21:16:08.330Z,13.70
2023-04-10T21:18:36.303Z,13.70
2023-04-10T21:21:04.497Z,13.70
2023-04-10T21:23:32.464Z,13.80
2023-04-10T21:28:41.698Z,13.70
2023-04-10T21:31:09.107Z,13.70
2023-04-10T21:33:36.750Z,13.70
2023-04-10T21:36:05.943Z,13.60
2023-04-10T21:38:34.952Z,13.70
2023-04-10T21:41:02.291Z,13.90
2023-04-10T21:43:30.249Z,13.90
2023-04-10T21:48:57.165Z,14.10
2023-04-10T21:51:26.864Z,14.20
2023-04-10T21:53:54.403Z,14.40
2023-04-10T21:56:22.282Z,14.20
2023-04-10T21:58:49.448Z,13.70
2023-04-10T22:01:16.835Z,13.70
2023-04-10T22:03:44.442Z,13.70
2023-04-10T22:14:21.991Z,13.10
2023-04-10T22:16:50.675Z,13.10
2023-04-10T22:19:18.213Z,13.00
2023-04-10T22:21:48.368Z,12.70
2023-04-10T22:24:19.062Z,12.90
2023-04-10T22:26:48.790Z,12.80
2023-04-10T22:29:19.414Z,12.50
2023-04-10T22:34:36.775Z,12.60
2023-04-10T22:37:04.461Z,12.30
2023-04-10T22:39:31.861Z,12.40
2023-04-10T22:41:59.398Z,12.50
2023-04-10T22:44:26.357Z,12.50
2023-04-10T22:46:54.050Z,12.60
2023-04-10T22:49:24.315Z,12.40
2023-04-10T22:57:46.841Z,12.30
2023-04-10T23:00:15.576Z,12.20
2023-04-10T23:02:43.006Z,12.10
2023-04-10T23:05:10.815Z,11.60
2023-04-10T23:07:38.102Z,11.00
2023-04-10T23:10:06.911Z,10.70
2023-04-10T23:12:34.250Z,10.50
2023-04-10T23:22:52.380Z,9.70
2023-04-10T23:25:19.798Z,8.90
2023-04-10T23:27:47.847Z,8.80
2023-04-10T23:30:15.649Z,8.60
2023-04-10T23:32:42.914Z,8.60
2023-04-10T23:35:11.032Z,8.70
2023-04-10T23:37:38.388Z,8.60
2023-04-10T23:40:09.246Z,8.40
2023-04-10T23:47:41.527Z,8.60
2023-04-10T23:50:10.153Z,8.70
2023-04-10T23:52:37.718Z,8.70
2023-04-10T23:55:06.389Z,8.60
2023-04-10T23:57:34.052Z,8.50
